Aérodrome :
LOGIN :

S'inscrire | Disclaimer

   EN    FR    IT 

 










Légende :    VFR   VFR Marginal   IFR   IFR Intensif   IFR Très Intensif
Visi : 
Plafond : 
>= 8 km
>= 3000ft
5 à 8 km
1000 à 3000 ft
1500m à 5 km
500 à 1000 ft
800 à 1500m
200 à 500 ft
< 800m
< 200 ft
Symboles :   Orages  Brouillard  Fortes neiges  Fortes précipitations  Vent > 20 kt
SIGMETs :   Divers  Orages  Givrage  Turbulence  Onde Orograph.  Cendres Volcan.






- Altitude de l'aérodrome : 358 ft


EGTC - Cranfield

DERNIER METAR :
  • 301050Z 29016KT CAVOK 07/02 Q1024

METARs EXPIRÉS :
  • 301020Z 29014KT CAVOK 06/02 Q1024
  • 300950Z 29014KT CAVOK 06/01 Q1024
  • 300920Z 28013KT 9999 FEW036 05/01 Q1024
  • 300850Z 27016KT 9999 FEW036 05/01 Q1023
  • 300820Z 28009KT 9999 SCT036 05/01 Q1023

TAF TAF EGTC
Valide du 30 à 09h jusqu'au 30 à 18h UTC


300755Z 3009/3018 29012KT 9999 SCT035



MET'MAP, la Météo Aéronautique d'un coup d'oeil ! - Copyright ORBIFLY Décembre 2007 - Disclaimer

ORBIFLY MET'MAP TEAM :

Programmation & Développement : Alexandra Zaïnal
Sur une idée originale de : Baudouin d'Aumeries
Soutien technique & logistique : Manuel Goepfert
Assistance : Marc-Olivier Méhu




SOURCES & CREDITS :

   NOAA